createdAt,value
2023-01-05T00:01:15.530Z,1.30
2023-01-05T00:03:41.838Z,1.52
2023-01-05T00:06:10.842Z,1.25
2023-01-05T00:08:37.961Z,1.38
2023-01-05T00:11:23.929Z,1.17
2023-01-05T00:14:08.970Z,1.20
2023-01-05T00:16:53.834Z,1.23
2023-01-05T00:19:38.642Z,1.10
2023-01-05T00:22:30.680Z,1.00
2023-01-05T00:25:04.636Z,1.00
2023-01-05T00:27:35.649Z,1.38
2023-01-05T00:30:01.889Z,1.70
2023-01-05T00:32:28.498Z,1.30
2023-01-05T00:34:55.898Z,1.25
2023-01-05T00:37:22.632Z,0.95
2023-01-05T00:39:48.982Z,0.70
2023-01-05T00:42:15.236Z,1.45
2023-01-05T00:44:41.491Z,1.40
2023-01-05T00:47:07.827Z,1.20
2023-01-05T00:49:34.047Z,1.20
2023-01-05T00:52:07.869Z,1.60
2023-01-05T00:54:34.558Z,1.15
2023-01-05T00:57:01.803Z,0.98
2023-01-05T00:59:29.502Z,1.10
2023-01-05T01:01:56.376Z,0.88
2023-01-05T01:06:49.150Z,0.90
2023-01-05T01:09:15.778Z,1.25
2023-01-05T01:11:42.054Z,0.90
2023-01-05T01:14:08.547Z,1.00
2023-01-05T01:16:34.831Z,0.68
2023-01-05T01:19:05.114Z,0.80
2023-01-05T01:21:31.922Z,0.80
2023-01-05T01:23:58.158Z,0.80
2023-01-05T01:26:24.387Z,0.90
2023-01-05T01:28:50.622Z,0.70
2023-01-05T01:31:17.029Z,1.08
2023-01-05T01:33:43.599Z,0.80
2023-01-05T01:36:10.007Z,0.70
2023-01-05T01:38:36.585Z,0.75
2023-01-05T01:41:02.809Z,0.85
2023-01-05T01:43:40.907Z,0.80
2023-01-05T01:46:07.392Z,0.88
2023-01-05T01:48:34.805Z,0.93
2023-01-05T01:51:08.042Z,0.77
2023-01-05T01:53:37.351Z,0.80
2023-01-05T01:56:05.052Z,0.93
2023-01-05T01:58:32.338Z,1.20
2023-01-05T02:01:01.607Z,1.40
2023-01-05T02:03:28.607Z,0.95
2023-01-05T02:08:31.232Z,0.95
2023-01-05T02:11:16.299Z,1.08
2023-01-05T02:14:01.235Z,0.90
2023-01-05T02:16:27.490Z,0.70
2023-01-05T02:19:08.338Z,1.08
2023-01-05T02:21:48.224Z,0.70
2023-01-05T02:24:28.656Z,0.70
2023-01-05T02:27:09.181Z,0.80
2023-01-05T02:29:35.388Z,1.00
2023-01-05T02:32:06.272Z,0.95
2023-01-05T02:34:55.254Z,0.65
2023-01-05T02:37:28.058Z,0.55
2023-01-05T02:39:59.873Z,0.77
2023-01-05T02:42:27.201Z,0.60
2023-01-05T02:44:53.467Z,0.60
2023-01-05T02:47:25.497Z,0.80
2023-01-05T02:49:59.602Z,0.90
2023-01-05T02:52:26.738Z,0.47
2023-01-05T02:54:59.187Z,0.60
2023-01-05T02:57:46.889Z,0.60
2023-01-05T03:00:18.461Z,0.60
2023-01-05T03:02:45.670Z,0.70
2023-01-05T03:05:14.570Z,0.50
2023-01-05T03:07:41.577Z,0.57
2023-01-05T03:10:27.040Z,0.70
2023-01-05T03:13:14.855Z,0.60
2023-01-05T03:15:42.930Z,0.40
2023-01-05T03:18:10.376Z,0.50
2023-01-05T03:20:39.077Z,0.40
2023-01-05T03:23:24.790Z,0.40
2023-01-05T03:26:11.171Z,0.60
2023-01-05T03:28:57.545Z,0.60
2023-01-05T03:31:46.376Z,0.70
2023-01-05T03:34:40.662Z,0.47
2023-01-05T03:37:13.278Z,0.90
2023-01-05T03:39:40.961Z,0.82
2023-01-05T03:42:08.383Z,0.57
2023-01-05T03:44:35.697Z,0.63
2023-01-05T03:47:01.955Z,0.80
2023-01-05T03:49:28.219Z,0.80
2023-01-05T03:51:54.532Z,0.75
2023-01-05T03:54:20.794Z,0.90
2023-01-05T03:56:47.024Z,0.50
2023-01-05T03:59:13.261Z,0.70
2023-01-05T04:01:39.710Z,0.80
2023-01-05T04:04:06.080Z,0.50
2023-01-05T04:06:32.347Z,0.50
2023-01-05T04:08:58.621Z,0.50
2023-01-05T04:11:25.211Z,0.45
2023-01-05T04:13:51.516Z,0.95
2023-01-05T04:16:18.118Z,0.60
2023-01-05T04:18:44.497Z,0.80
2023-01-05T04:21:10.956Z,0.70
2023-01-05T04:23:37.199Z,0.63
2023-01-05T04:26:03.573Z,0.85
2023-01-05T04:28:29.797Z,0.70
2023-01-05T04:30:56.176Z,0.50
2023-01-05T04:33:22.977Z,0.70
2023-01-05T04:35:49.430Z,0.90
2023-01-05T04:38:16.029Z,0.70
2023-01-05T04:40:42.271Z,1.83
2023-01-05T04:43:08.493Z,1.20
2023-01-05T04:45:34.757Z,2.78
2023-01-05T04:48:01.023Z,2.13
2023-01-05T04:50:27.566Z,1.67
2023-01-05T04:52:53.796Z,2.13
2023-01-05T04:55:20.024Z,1.92
2023-01-05T04:57:46.243Z,2.35
2023-01-05T05:00:12.715Z,2.13
2023-01-05T05:02:39.011Z,3.00
2023-01-05T05:05:05.504Z,2.15
2023-01-05T05:07:31.758Z,2.10
2023-01-05T05:09:57.980Z,2.10
2023-01-05T05:12:24.219Z,2.17
2023-01-05T05:14:50.628Z,2.88
2023-01-05T05:17:16.905Z,3.38
2023-01-05T05:19:43.557Z,3.78
2023-01-05T05:22:10.054Z,2.15
2023-01-05T05:24:36.268Z,2.92
2023-01-05T05:27:02.547Z,2.83
2023-01-05T05:29:28.753Z,2.30
2023-01-05T05:31:55.049Z,2.40
2023-01-05T05:34:21.261Z,3.00
2023-01-05T05:36:47.485Z,2.58
2023-01-05T05:39:14.045Z,3.05
2023-01-05T05:41:40.270Z,2.88
2023-01-05T05:44:06.848Z,2.85
2023-01-05T05:46:33.209Z,2.30
2023-01-05T05:48:59.718Z,2.22
2023-01-05T05:51:26.421Z,3.80
2023-01-05T05:53:52.822Z,2.50
2023-01-05T05:56:19.094Z,3.38
2023-01-05T05:58:45.321Z,3.13
2023-01-05T06:01:11.859Z,3.35
2023-01-05T06:03:38.267Z,4.18
2023-01-05T06:06:05.185Z,3.88
2023-01-05T06:10:57.709Z,3.50
2023-01-05T06:13:24.000Z,3.50
2023-01-05T06:15:50.326Z,2.58
2023-01-05T06:18:16.895Z,2.85
2023-01-05T06:20:43.181Z,2.78
2023-01-05T06:23:09.809Z,3.72
2023-01-05T06:25:36.039Z,3.00
2023-01-05T06:28:02.675Z,2.22
2023-01-05T06:30:29.178Z,2.83
2023-01-05T06:32:55.497Z,2.95
2023-01-05T06:35:21.845Z,2.70
2023-01-05T06:37:48.093Z,2.95
2023-01-05T06:40:14.540Z,3.17
2023-01-05T06:42:41.302Z,3.20
2023-01-05T06:45:08.192Z,8.23
2023-01-05T06:50:00.589Z,2.80
2023-01-05T06:52:26.840Z,3.00
2023-01-05T06:54:53.107Z,2.10
2023-01-05T06:57:19.428Z,2.83
2023-01-05T06:59:45.655Z,2.60
2023-01-05T07:02:15.631Z,2.38
2023-01-05T07:04:42.260Z,2.88
2023-01-05T07:07:14.667Z,2.30
2023-01-05T07:09:41.111Z,3.83
2023-01-05T07:12:07.842Z,3.00
2023-01-05T07:14:34.071Z,3.47
2023-01-05T07:17:00.353Z,2.83
2023-01-05T07:19:26.626Z,1.95
2023-01-05T07:21:56.725Z,2.75
2023-01-05T07:24:23.391Z,2.15
2023-01-05T07:26:50.091Z,2.90
2023-01-05T07:29:16.612Z,3.22
2023-01-05T07:31:42.983Z,7.28
2023-01-05T07:34:09.640Z,2.10
2023-01-05T07:36:36.039Z,2.63
2023-01-05T07:39:02.357Z,2.92
2023-01-05T07:41:28.587Z,3.33
2023-01-05T07:43:54.844Z,2.60
2023-01-05T07:46:21.113Z,2.40
2023-01-05T07:48:47.437Z,3.20
2023-01-05T07:51:13.650Z,2.40
2023-01-05T07:53:44.291Z,2.72
2023-01-05T07:56:11.734Z,3.03
2023-01-05T07:58:38.056Z,2.72
2023-01-05T08:01:05.494Z,3.50
2023-01-05T08:03:32.162Z,2.72
2023-01-05T08:05:58.653Z,3.50
2023-01-05T08:08:25.052Z,2.55
2023-01-05T08:10:51.413Z,2.13
2023-01-05T08:13:36.395Z,3.05
2023-01-05T08:16:02.932Z,2.58
2023-01-05T08:18:29.298Z,2.63
2023-01-05T08:20:56.709Z,2.42
2023-01-05T08:23:25.404Z,3.40
2023-01-05T08:25:52.868Z,2.40
2023-01-05T08:28:21.855Z,2.67
2023-01-05T08:30:48.095Z,2.65
2023-01-05T08:33:14.355Z,2.80
2023-01-05T08:35:44.342Z,8.63
2023-01-05T08:38:10.950Z,21.13
2023-01-05T08:40:37.556Z,42.50
2023-01-05T08:43:04.570Z,12.55
2023-01-05T08:45:31.316Z,31.48
2023-01-05T08:47:57.689Z,5.07
2023-01-05T08:50:24.160Z,5.93
2023-01-05T08:52:50.496Z,3.85
2023-01-05T08:55:16.797Z,4.50
2023-01-05T08:57:43.053Z,3.25
2023-01-05T09:00:09.717Z,4.72
2023-01-05T09:02:36.218Z,2.95
2023-01-05T09:05:02.966Z,2.45
2023-01-05T09:07:29.212Z,2.50
2023-01-05T09:09:55.546Z,2.92
2023-01-05T09:12:21.821Z,2.92
2023-01-05T09:14:48.104Z,3.65
2023-01-05T09:17:14.395Z,3.65
2023-01-05T09:19:40.669Z,3.05
2023-01-05T09:22:06.900Z,3.40
2023-01-05T09:24:33.174Z,2.40
2023-01-05T09:26:59.515Z,3.30
2023-01-05T09:29:25.796Z,3.03
2023-01-05T09:31:52.066Z,3.65
2023-01-05T09:34:19.128Z,3.75
2023-01-05T09:36:45.679Z,2.67
2023-01-05T09:39:11.949Z,3.00
2023-01-05T09:41:44.941Z,3.08
2023-01-05T09:44:26.270Z,2.50
2023-01-05T09:46:54.872Z,2.53
2023-01-05T09:49:22.896Z,3.15
2023-01-05T09:51:51.147Z,6.70
2023-01-05T09:54:18.020Z,3.10
2023-01-05T09:59:36.028Z,2.95
2023-01-05T10:02:14.513Z,2.92
2023-01-05T10:04:41.448Z,3.30
2023-01-05T10:09:36.015Z,2.20
2023-01-05T10:12:24.931Z,2.30
2023-01-05T10:14:54.507Z,3.67
2023-01-05T10:20:15.953Z,3.33
2023-01-05T10:22:48.476Z,4.00
2023-01-05T10:25:17.487Z,4.10
2023-01-05T10:28:02.824Z,3.33
2023-01-05T10:30:43.931Z,3.75
2023-01-05T10:33:38.950Z,3.10
2023-01-05T10:36:10.288Z,3.63
2023-01-05T10:38:51.541Z,3.58
2023-01-05T10:41:29.830Z,4.03
2023-01-05T10:44:02.265Z,3.63
2023-01-05T10:46:34.931Z,3.45
2023-01-05T10:49:07.101Z,3.85
2023-01-05T10:53:59.748Z,3.55
2023-01-05T10:56:29.273Z,3.05
2023-01-05T10:59:15.852Z,3.72
2023-01-05T11:01:47.072Z,3.55
2023-01-05T11:04:29.400Z,3.50
2023-01-05T11:07:06.633Z,3.40
2023-01-05T11:09:33.696Z,3.42
2023-01-05T11:12:01.696Z,3.22
2023-01-05T11:14:33.287Z,2.85
2023-01-05T11:17:06.702Z,3.42
2023-01-05T11:19:36.924Z,3.90
2023-01-05T11:22:03.254Z,2.83
2023-01-05T11:24:29.561Z,4.05
2023-01-05T11:26:57.182Z,3.78
2023-01-05T11:29:23.466Z,3.30
2023-01-05T11:31:58.400Z,4.70
2023-01-05T11:34:37.564Z,3.10
2023-01-05T11:37:08.339Z,3.78
2023-01-05T11:39:38.295Z,3.67
2023-01-05T11:42:08.534Z,3.22
2023-01-05T11:44:35.707Z,3.42
2023-01-05T11:47:02.416Z,4.00
2023-01-05T11:49:28.687Z,5.13
2023-01-05T11:51:54.935Z,3.92
2023-01-05T11:54:38.082Z,4.72
2023-01-05T11:57:10.442Z,3.88
2023-01-05T11:59:37.684Z,4.13
2023-01-05T12:02:22.774Z,3.67
2023-01-05T12:05:07.599Z,3.03
2023-01-05T12:07:34.927Z,4.10
2023-01-05T12:10:23.567Z,5.47
2023-01-05T12:13:08.853Z,4.05
2023-01-05T12:15:37.978Z,3.70
2023-01-05T12:18:12.612Z,4.53
2023-01-05T12:21:05.061Z,4.15
2023-01-05T12:23:34.461Z,4.72
2023-01-05T12:26:19.840Z,4.30
2023-01-05T12:29:21.366Z,4.63
2023-01-05T12:34:56.401Z,4.43
2023-01-05T12:37:22.621Z,6.97
2023-01-05T12:40:00.810Z,4.50
2023-01-05T12:42:36.348Z,3.97
2023-01-05T12:45:09.059Z,3.83
2023-01-05T12:47:50.119Z,4.07
2023-01-05T12:50:22.969Z,3.08
2023-01-05T12:52:51.847Z,3.63
2023-01-05T12:55:18.176Z,4.28
2023-01-05T12:57:49.281Z,3.72
2023-01-05T13:00:18.230Z,3.38
2023-01-05T13:02:51.479Z,4.07
2023-01-05T13:05:21.859Z,3.65
2023-01-05T13:07:52.293Z,5.03
2023-01-05T13:10:41.635Z,4.20
2023-01-05T13:13:12.711Z,5.88
2023-01-05T13:16:00.806Z,5.00
2023-01-05T13:20:55.890Z,5.03
2023-01-05T13:23:42.405Z,4.68
2023-01-05T13:26:15.102Z,3.72
2023-01-05T13:28:41.377Z,3.70
2023-01-05T13:31:26.212Z,4.03
2023-01-05T13:34:04.347Z,3.45
2023-01-05T13:36:41.067Z,6.25
2023-01-05T13:39:25.623Z,7.05
2023-01-05T13:41:58.162Z,7.38
2023-01-05T13:44:31.671Z,17.85
2023-01-05T13:47:17.570Z,12.38
2023-01-05T13:50:02.758Z,11.93
2023-01-05T13:52:28.960Z,6.40
2023-01-05T13:55:02.695Z,11.80
2023-01-05T13:57:31.038Z,6.90
2023-01-05T14:00:06.436Z,8.93
2023-01-05T14:02:37.437Z,7.03
2023-01-05T14:05:05.672Z,4.93
2023-01-05T14:07:32.111Z,5.50
2023-01-05T14:09:58.899Z,5.97
2023-01-05T14:12:45.453Z,4.82
2023-01-05T14:15:30.474Z,4.50
2023-01-05T14:18:02.036Z,2.95
2023-01-05T14:20:48.753Z,3.40
2023-01-05T14:23:26.967Z,3.85
2023-01-05T14:25:53.219Z,3.22
2023-01-05T14:28:21.392Z,3.97
2023-01-05T14:30:49.680Z,2.97
2023-01-05T14:33:17.130Z,5.15
2023-01-05T14:35:44.300Z,4.07
2023-01-05T14:38:13.393Z,3.38
2023-01-05T14:40:41.145Z,3.35
2023-01-05T14:43:27.691Z,4.18
2023-01-05T14:46:09.622Z,2.85
2023-01-05T14:48:37.657Z,3.58
2023-01-05T14:51:08.575Z,3.42
2023-01-05T14:53:48.215Z,2.97
2023-01-05T14:56:28.229Z,2.80
2023-01-05T14:59:14.350Z,3.08
2023-01-05T15:01:47.080Z,2.95
2023-01-05T15:04:18.608Z,3.80
2023-01-05T15:06:44.873Z,3.15
2023-01-05T15:09:14.120Z,3.17
2023-01-05T15:11:46.515Z,3.47
2023-01-05T15:14:34.889Z,4.65
2023-01-05T15:17:19.465Z,3.47
2023-01-05T15:19:57.926Z,2.95
2023-01-05T15:22:37.614Z,3.03
2023-01-05T15:25:22.671Z,3.25
2023-01-05T15:27:52.800Z,4.15
2023-01-05T15:30:37.691Z,4.10
2023-01-05T15:33:09.210Z,3.35
2023-01-05T15:35:40.473Z,3.38
2023-01-05T15:38:20.085Z,3.25
2023-01-05T15:40:46.499Z,2.65
2023-01-05T15:43:15.579Z,3.53
2023-01-05T15:45:43.463Z,3.22
2023-01-05T15:48:13.598Z,4.50
2023-01-05T15:50:44.660Z,3.33
2023-01-05T15:53:22.933Z,2.80
2023-01-05T15:55:51.920Z,4.72
2023-01-05T15:58:18.337Z,2.95
2023-01-05T16:00:58.989Z,4.00
2023-01-05T16:03:27.548Z,3.53
2023-01-05T16:05:58.070Z,3.83
2023-01-05T16:08:24.463Z,3.63
2023-01-05T16:10:56.014Z,4.32
2023-01-05T16:13:28.161Z,5.25
2023-01-05T16:15:55.899Z,4.60
2023-01-05T16:18:31.054Z,10.68
2023-01-05T16:20:57.876Z,5.30
2023-01-05T16:23:28.672Z,6.07
2023-01-05T16:25:58.643Z,4.03
2023-01-05T16:28:25.460Z,3.88
2023-01-05T16:30:52.752Z,4.88
2023-01-05T16:33:21.764Z,4.18
2023-01-05T16:35:53.500Z,3.40
2023-01-05T16:38:22.484Z,3.83
2023-01-05T16:40:49.536Z,4.10
2023-01-05T16:43:21.938Z,5.32
2023-01-05T16:45:50.120Z,3.72
2023-01-05T16:48:32.035Z,5.35
2023-01-05T16:50:58.914Z,3.88
2023-01-05T16:55:53.505Z,4.75
2023-01-05T16:58:29.033Z,4.75
2023-01-05T17:01:13.709Z,5.03
2023-01-05T17:03:40.324Z,5.13
2023-01-05T17:06:08.213Z,4.78
2023-01-05T17:08:37.555Z,4.45
2023-01-05T17:11:04.809Z,4.28
2023-01-05T17:13:41.542Z,3.55
2023-01-05T17:16:09.993Z,4.40
2023-01-05T17:18:36.442Z,3.47
2023-01-05T17:21:03.766Z,3.33
2023-01-05T17:23:31.724Z,3.63
2023-01-05T17:25:59.742Z,3.47
2023-01-05T17:28:26.094Z,3.08
2023-01-05T17:30:52.657Z,3.20
2023-01-05T17:33:18.981Z,3.45
2023-01-05T17:35:45.974Z,2.80
2023-01-05T17:40:38.858Z,3.08
2023-01-05T17:43:05.289Z,3.92
2023-01-05T17:45:31.609Z,3.95
2023-01-05T17:47:57.967Z,3.80
2023-01-05T17:52:59.173Z,3.85
2023-01-05T17:55:25.905Z,3.28
2023-01-05T17:57:52.431Z,2.53
2023-01-05T18:00:21.879Z,4.35
2023-01-05T18:02:49.252Z,3.35
2023-01-05T18:07:42.192Z,3.63
2023-01-05T18:10:10.129Z,3.40
2023-01-05T18:12:36.402Z,3.35
2023-01-05T18:15:02.730Z,3.25
2023-01-05T18:17:28.983Z,3.20
2023-01-05T18:19:55.214Z,3.30
2023-01-05T18:22:21.520Z,3.78
2023-01-05T18:24:47.845Z,2.85
2023-01-05T18:27:14.371Z,2.92
2023-01-05T18:29:41.757Z,2.38
2023-01-05T18:32:08.714Z,3.28
2023-01-05T18:37:05.931Z,2.83
2023-01-05T18:39:36.799Z,2.95
2023-01-05T18:42:03.038Z,3.35
2023-01-05T18:44:29.304Z,2.90
2023-01-05T18:46:55.642Z,2.92
2023-01-05T18:49:21.877Z,3.92
2023-01-05T18:51:49.991Z,3.17
2023-01-05T18:54:16.225Z,2.65
2023-01-05T18:56:42.446Z,2.97
2023-01-05T18:59:09.858Z,2.50
2023-01-05T19:01:39.992Z,2.30
2023-01-05T19:04:06.708Z,2.90
2023-01-05T19:06:32.936Z,2.00
2023-01-05T19:09:01.397Z,2.30
2023-01-05T19:11:27.663Z,2.47
2023-01-05T19:13:54.660Z,4.57
2023-01-05T19:18:52.743Z,2.08
2023-01-05T19:21:19.171Z,3.20
2023-01-05T19:23:45.669Z,2.10
2023-01-05T19:26:11.922Z,2.13
2023-01-05T19:28:39.008Z,2.17
2023-01-05T19:31:06.735Z,2.25
2023-01-05T19:33:33.039Z,2.30
2023-01-05T19:36:07.161Z,2.08
2023-01-05T19:38:33.685Z,2.35
2023-01-05T19:41:08.189Z,2.20
2023-01-05T19:43:34.929Z,2.28
2023-01-05T19:46:01.972Z,2.00
2023-01-05T19:48:31.198Z,1.98
2023-01-05T19:50:58.604Z,2.97
2023-01-05T19:53:25.547Z,1.95
2023-01-05T19:58:18.000Z,1.77
2023-01-05T20:00:44.236Z,1.70
2023-01-05T20:03:10.488Z,1.60
2023-01-05T20:05:36.925Z,2.60
2023-01-05T20:08:03.142Z,2.58
2023-01-05T20:10:29.368Z,1.95
2023-01-05T20:12:55.568Z,2.30
2023-01-05T20:15:21.795Z,1.60
2023-01-05T20:17:47.997Z,2.33
2023-01-05T20:20:14.444Z,2.55
2023-01-05T20:22:40.798Z,2.08
2023-01-05T20:25:07.320Z,2.53
2023-01-05T20:27:34.113Z,2.00
2023-01-05T20:30:00.678Z,2.55
2023-01-05T20:32:27.895Z,2.13
2023-01-05T20:34:59.603Z,1.98
2023-01-05T20:37:26.687Z,1.67
2023-01-05T20:39:59.777Z,1.65
2023-01-05T20:42:26.444Z,2.13
2023-01-05T20:44:52.850Z,2.33
2023-01-05T20:47:19.324Z,2.08
2023-01-05T20:49:46.321Z,1.73
2023-01-05T20:52:14.071Z,1.92
2023-01-05T20:54:40.967Z,1.83
2023-01-05T20:59:34.728Z,2.60
2023-01-05T21:02:01.491Z,2.90
2023-01-05T21:04:28.503Z,2.70
2023-01-05T21:09:21.489Z,2.15
2023-01-05T21:11:48.107Z,2.78
2023-01-05T21:14:19.544Z,2.67
2023-01-05T21:16:46.754Z,2.85
2023-01-05T21:19:17.612Z,3.13
2023-01-05T21:21:45.002Z,3.30
2023-01-05T21:24:11.682Z,4.85
2023-01-05T21:26:37.928Z,3.75
2023-01-05T21:29:05.994Z,3.08
2023-01-05T21:31:32.916Z,4.25
2023-01-05T21:36:26.836Z,4.85
2023-01-05T21:39:01.444Z,4.00
2023-01-05T21:42:07.831Z,4.03
2023-01-05T21:44:34.150Z,4.63
2023-01-05T21:47:00.498Z,5.72
2023-01-05T21:49:26.932Z,4.18
2023-01-05T21:52:11.947Z,5.60
2023-01-05T21:54:56.711Z,4.93
2023-01-05T21:57:23.694Z,4.93
2023-01-05T22:02:16.195Z,4.70
2023-01-05T22:04:42.783Z,4.88
2023-01-05T22:07:09.146Z,4.60
2023-01-05T22:09:35.821Z,5.55
2023-01-05T22:12:02.740Z,5.25
2023-01-05T22:16:55.182Z,7.15
2023-01-05T22:19:21.513Z,6.53
2023-01-05T22:21:47.780Z,6.47
2023-01-05T22:24:14.097Z,5.95
2023-01-05T22:26:40.324Z,5.97
2023-01-05T22:29:06.571Z,6.45
2023-01-05T22:31:33.596Z,8.27
2023-01-05T22:34:00.760Z,8.75
2023-01-05T22:36:27.650Z,7.97
2023-01-05T22:41:21.636Z,7.90
2023-01-05T22:43:48.408Z,9.48
2023-01-05T22:46:19.970Z,6.35
2023-01-05T22:48:46.966Z,6.32
2023-01-05T22:53:39.760Z,8.82
2023-01-05T22:56:07.379Z,6.40
2023-01-05T22:58:33.644Z,7.20
2023-01-05T23:01:21.105Z,6.15
2023-01-05T23:03:47.511Z,5.90
2023-01-05T23:06:13.860Z,7.00
2023-01-05T23:08:40.430Z,6.10
2023-01-05T23:11:32.922Z,6.32
2023-01-05T23:13:59.896Z,6.38
2023-01-05T23:18:52.869Z,5.97
2023-01-05T23:21:19.916Z,6.15
2023-01-05T23:23:46.243Z,5.90
2023-01-05T23:26:13.909Z,6.20
2023-01-05T23:28:40.498Z,5.73
2023-01-05T23:31:06.851Z,6.25
2023-01-05T23:33:34.537Z,5.85
2023-01-05T23:36:00.901Z,5.78
2023-01-05T23:38:27.697Z,9.00
2023-01-05T23:40:54.716Z,5.70
2023-01-05T23:45:47.605Z,5.88
2023-01-05T23:48:14.406Z,5.55
2023-01-05T23:50:41.164Z,5.70
2023-01-05T23:53:07.408Z,5.53
2023-01-05T23:55:33.627Z,6.65
2023-01-05T23:57:59.991Z,5.68
